Warwick, Georgia
Current Conditions -  °F | °C
As of 6:35 PM on Saturday 22 Nov 2014 (Local Time) from KCKF Reporting Station
Overcast Overcast  
Wind Chill: 64°   Ceiling: 3400
Heat Index: 64°   Visibility: 10mi
Dew Point: 51°   Wind: 5mph
Humidity: 63%   Direction: 70°ENE
Pressure: 30.24"   Gusts: NA
Location:  31.83°N, 83.92°W
Report Text: KCKF 222335Z AUTO 07004KT 10SM OVC034 18/10 A3024 RMK AO2 LTG DSNT SW T01760104
Loading
Personal Weather Stations






























Interactive Weather Map New forecast layout! Learn more

10-Day Weather Forecast

Advertisements
Track Severe Weather on mobile